Time;durP1;ratioP1;P1;durP2;ratioP2;P2;SDS_P1;SDS_P2;PMS_P1;PMS_P2;Temp;Humidity;BMP_temperature;BMP_pressure;BME280_temperature;BME280_humidity;BME280_pressure;Samples;Min_cycle;Max_cycle;Signal;HPM_P1;HPM_P2
2022/08/01 00:01:37;;;;;;;2.10;1.40;;;;;;;;;;5121733;28;20212;-72
2022/08/01 00:04:03;;;;;;;2.95;1.48;;;;;;;;;;5121854;28;20077;-72
2022/08/01 00:06:29;;;;;;;2.85;1.40;;;;;;;;;;5122313;28;20311;-72
2022/08/01 00:08:55;;;;;;;2.25;1.27;;;;;;;;;;5121282;28;20027;-72
2022/08/01 00:11:21;;;;;;;2.15;1.27;;;;;;;;;;5103714;28;20080;-72
2022/08/01 00:13:46;;;;;;;2.60;1.38;;;;;;;;;;5122048;28;20339;-72
2022/08/01 00:16:11;;;;;;;2.63;1.40;;;;;;;;;;5121705;28;20226;-72
2022/08/01 00:18:37;;;;;;;3.85;1.52;;;;;;;;;;5121630;28;20275;-72
2022/08/01 00:21:04;;;;;;;3.97;1.30;;;;;;;;;;5121848;28;20103;-72
2022/08/01 00:23:30;;;;;;;2.83;1.30;;;;;;;;;;5121254;28;20054;-72
2022/08/01 00:25:55;;;;;;;2.20;1.30;;;;;;;;;;5121679;28;20032;-77
2022/08/01 00:28:20;;;;;;;1.98;1.25;;;;;;;;;;5119309;28;20387;-72
2022/08/01 00:30:46;;;;;;;2.65;1.40;;;;;;;;;;5117222;28;20084;-72
2022/08/01 00:33:11;;;;;;;3.03;1.40;;;;;;;;;;5121440;28;20030;-72
2022/08/01 00:35:37;;;;;;;2.63;1.40;;;;;;;;;;5120639;28;20020;-72
2022/08/01 00:38:02;;;;;;;3.72;1.30;;;;;;;;;;5121732;28;20020;-72
2022/08/01 00:40:28;;;;;;;2.70;1.30;;;;;;;;;;5120690;28;20024;-72
2022/08/01 00:42:53;;;;;;;2.53;1.30;;;;;;;;;;5122070;28;20020;-72
2022/08/01 00:45:19;;;;;;;2.08;1.25;;;;;;;;;;5121293;28;20405;-72
2022/08/01 00:47:44;;;;;;;2.65;1.30;;;;;;;;;;5097973;28;20024;-72
2022/08/01 00:50:10;;;;;;;2.28;1.40;;;;;;;;;;5121093;28;20315;-72
2022/08/01 00:52:36;;;;;;;3.35;1.30;;;;;;;;;;5121319;28;20062;-72
2022/08/01 00:55:03;;;;;;;2.80;1.50;;;;;;;;;;5114295;28;20047;-72
2022/08/01 00:57:29;;;;;;;2.47;1.48;;;;;;;;;;5121197;28;20020;-72
2022/08/01 00:59:55;;;;;;;2.92;1.50;;;;;;;;;;5120912;28;20244;-72
2022/08/01 01:02:21;;;;;;;2.05;1.15;;;;;;;;;;5120862;28;20066;-72
2022/08/01 01:04:46;;;;;;;1.90;1.30;;;;;;;;;;5121168;28;20019;-72
2022/08/01 01:07:30;;;;;;;2.60;1.40;;;;;;;;;;5121330;28;20067;-72
2022/08/01 01:10:34;;;;;;;3.15;1.40;;;;;;;;;;5120469;28;20030;-72
2022/08/01 01:13:06;;;;;;;2.60;1.50;;;;;;;;;;5118026;28;20141;-72
2022/08/01 01:15:47;;;;;;;2.78;1.38;;;;;;;;;;5120627;28;20023;-72
2022/08/01 01:18:27;;;;;;;3.17;1.50;;;;;;;;;;5118326;28;20019;-72
2022/08/01 01:21:18;;;;;;;2.58;1.38;;;;;;;;;;5120877;28;20286;-72
2022/08/01 01:24:12;;;;;;;2.92;1.40;;;;;;;;;;5112775;28;20097;-72
2022/08/01 01:26:55;;;;;;;3.10;1.50;;;;;;;;;;5117704;28;20023;-72
2022/08/01 01:29:40;;;;;;;6.20;1.40;;;;;;;;;;5120901;28;20261;-72
2022/08/01 01:32:20;;;;;;;2.00;1.30;;;;;;;;;;5120021;28;20123;-72
2022/08/01 01:34:49;;;;;;;2.63;1.42;;;;;;;;;;5114661;28;20024;-73
2022/08/01 01:37:18;;;;;;;4.65;1.42;;;;;;;;;;5109528;28;20028;-72
2022/08/01 01:39:46;;;;;;;2.83;1.60;;;;;;;;;;5120250;28;20238;-72
2022/08/01 01:42:14;;;;;;;2.65;1.40;;;;;;;;;;5121298;28;20047;-72
2022/08/01 01:44:40;;;;;;;2.83;1.30;;;;;;;;;;5120956;28;20024;-72
2022/08/01 01:47:06;;;;;;;2.35;1.40;;;;;;;;;;5123721;28;20069;-72
2022/08/01 01:49:32;;;;;;;2.67;1.40;;;;;;;;;;5123686;28;20031;-72
2022/08/01 01:52:00;;;;;;;2.72;1.40;;;;;;;;;;5103024;28;20035;-72
2022/08/01 01:54:31;;;;;;;2.72;1.55;;;;;;;;;;5103857;28;20050;-72
2022/08/01 01:57:00;;;;;;;2.90;1.40;;;;;;;;;;5104145;28;20024;-72
2022/08/01 01:59:28;;;;;;;2.50;1.33;;;;;;;;;;5104105;28;20091;-72
2022/08/01 02:01:56;;;;;;;2.50;1.30;;;;;;;;;;5104117;28;20091;-72
2022/08/01 02:04:23;;;;;;;2.30;1.40;;;;;;;;;;5103928;28;20024;-72
2022/08/01 02:06:50;;;;;;;3.17;1.45;;;;;;;;;;5103984;28;20387;-72
2022/08/01 02:09:21;;;;;;;2.20;1.30;;;;;;;;;;5103324;28;20032;-73
2022/08/01 02:11:48;;;;;;;3.42;1.40;;;;;;;;;;5092410;28;20380;-72
2022/08/01 02:14:16;;;;;;;2.60;1.40;;;;;;;;;;5103941;28;20275;-72
2022/08/01 02:16:46;;;;;;;3.15;1.42;;;;;;;;;;5103561;28;20045;-72
2022/08/01 02:19:13;;;;;;;3.75;1.40;;;;;;;;;;5103580;28;20316;-72
2022/08/01 02:21:52;;;;;;;3.08;1.45;;;;;;;;;;5103886;28;20308;-72
2022/08/01 02:24:47;;;;;;;2.97;1.30;;;;;;;;;;5103134;28;20044;-72
2022/08/01 02:27:17;;;;;;;2.30;1.30;;;;;;;;;;5096966;28;20043;-72
2022/08/01 02:29:44;;;;;;;3.10;1.45;;;;;;;;;;5097611;28;20032;-72
2022/08/01 02:32:20;;;;;;;2.67;1.30;;;;;;;;;;5097108;28;20020;-72
2022/08/01 02:34:49;;;;;;;2.47;1.38;;;;;;;;;;5096090;28;20081;-72
2022/08/01 02:37:15;;;;;;;2.67;1.40;;;;;;;;;;5103532;28;20308;-72
2022/08/01 02:39:42;;;;;;;3.17;1.60;;;;;;;;;;5103220;28;20028;-72
2022/08/01 02:42:08;;;;;;;5.00;1.38;;;;;;;;;;5103349;28;20073;-72
2022/08/01 02:44:39;;;;;;;2.70;1.40;;;;;;;;;;5101737;28;20275;-73
2022/08/01 02:47:05;;;;;;;2.38;1.38;;;;;;;;;;5103161;28;20028;-72
2022/08/01 02:49:35;;;;;;;4.13;1.33;;;;;;;;;;5102209;28;20028;-72
2022/08/01 02:52:08;;;;;;;3.83;1.40;;;;;;;;;;5108780;28;20331;-72
2022/08/01 02:54:35;;;;;;;2.83;1.30;;;;;;;;;;5116608;28;20042;-72
2022/08/01 02:57:03;;;;;;;3.00;1.40;;;;;;;;;;5122958;28;20031;-72
2022/08/01 02:59:30;;;;;;;3.72;1.40;;;;;;;;;;5122836;28;20027;-72
2022/08/01 03:01:57;;;;;;;3.22;1.33;;;;;;;;;;5123404;28;20220;-72
2022/08/01 03:04:24;;;;;;;3.30;1.83;;;;;;;;;;5123232;28;20192;-72
2022/08/01 03:06:51;;;;;;;1.92;1.27;;;;;;;;;;5123035;28;20440;-72
2022/08/01 03:09:18;;;;;;;2.30;1.30;;;;;;;;;;5123051;28;20051;-72
2022/08/01 03:11:45;;;;;;;2.03;1.27;;;;;;;;;;5123269;28;20020;-72
2022/08/01 03:14:12;;;;;;;2.53;1.45;;;;;;;;;;5122828;28;20031;-72
2022/08/01 03:16:39;;;;;;;3.88;1.52;;;;;;;;;;5090100;28;20327;-72
2022/08/01 03:19:08;;;;;;;3.10;1.40;;;;;;;;;;5117066;28;20035;-72
2022/08/01 03:21:34;;;;;;;3.15;1.40;;;;;;;;;;5122612;28;20032;-72
2022/08/01 03:24:01;;;;;;;2.65;1.40;;;;;;;;;;5122850;28;20035;-72
2022/08/01 03:26:28;;;;;;;2.97;1.40;;;;;;;;;;5123105;28;20024;-72
2022/08/01 03:28:58;;;;;;;2.25;1.30;;;;;;;;;;5109802;28;20037;-72
2022/08/01 03:31:25;;;;;;;2.60;1.40;;;;;;;;;;5110202;28;20031;-72
2022/08/01 03:33:50;;;;;;;2.30;1.38;;;;;;;;;;5109706;28;20051;-72
2022/08/01 03:36:20;;;;;;;2.65;1.40;;;;;;;;;;5122400;28;20031;-72
2022/08/01 03:38:48;;;;;;;2.90;1.50;;;;;;;;;;5120969;28;20102;-72
2022/08/01 03:41:18;;;;;;;3.10;1.40;;;;;;;;;;5113789;28;20031;-72
2022/08/01 03:44:00;;;;;;;2.80;1.25;;;;;;;;;;5119597;28;20215;-72
2022/08/01 03:47:03;;;;;;;3.08;1.45;;;;;;;;;;5122506;28;20062;-72
2022/08/01 03:49:35;;;;;;;4.65;1.50;;;;;;;;;;5090089;28;20383;-72
2022/08/01 03:52:04;;;;;;;2.13;1.45;;;;;;;;;;5121949;28;20050;-72
2022/08/01 03:54:33;;;;;;;3.25;1.58;;;;;;;;;;5103844;28;20019;-72
2022/08/01 03:57:00;;;;;;;3.13;1.40;;;;;;;;;;5122338;28;20032;-72
2022/08/01 03:59:26;;;;;;;2.22;1.38;;;;;;;;;;5121839;28;20429;-73
2022/08/01 04:01:52;;;;;;;2.03;1.30;;;;;;;;;;5122364;28;20035;-72
2022/08/01 04:04:18;;;;;;;3.25;1.50;;;;;;;;;;5121806;28;20023;-72
2022/08/01 04:06:44;;;;;;;4.38;1.50;;;;;;;;;;5115650;28;20195;-72
2022/08/01 04:09:10;;;;;;;2.65;1.50;;;;;;;;;;5113820;28;20354;-72
2022/08/01 04:11:36;;;;;;;4.80;1.58;;;;;;;;;;5121890;28;20038;-72
2022/08/01 04:14:01;;;;;;;2.70;1.40;;;;;;;;;;5121957;28;20023;-72
2022/08/01 04:16:27;;;;;;;3.65;1.60;;;;;;;;;;5122173;28;20223;-72
2022/08/01 04:18:52;;;;;;;3.22;1.60;;;;;;;;;;5122016;28;20392;-72
2022/08/01 04:21:24;;;;;;;3.20;1.33;;;;;;;;;;5121509;28;20024;-72
2022/08/01 04:23:52;;;;;;;3.00;1.42;;;;;;;;;;5121588;28;20031;-72
2022/08/01 04:26:19;;;;;;;3.60;1.50;;;;;;;;;;5121806;28;20038;-72
2022/08/01 04:28:46;;;;;;;2.03;1.25;;;;;;;;;;5114022;28;20096;-72
2022/08/01 04:31:14;;;;;;;3.22;1.10;;;;;;;;;;5115187;28;20024;-72
2022/08/01 04:33:43;;;;;;;3.40;1.88;;;;;;;;;;5121522;28;20316;-72
2022/08/01 04:36:12;;;;;;;2.35;1.35;;;;;;;;;;5121194;28;20061;-72
2022/08/01 04:38:39;;;;;;;3.50;1.45;;;;;;;;;;5121266;28;20083;-72
2022/08/01 04:41:06;;;;;;;2.83;1.27;;;;;;;;;;5121456;28;20020;-72
2022/08/01 04:43:32;;;;;;;3.35;1.50;;;;;;;;;;5120921;28;20065;-72
2022/08/01 04:46:03;;;;;;;3.63;1.70;;;;;;;;;;5121471;28;20023;-72
2022/08/01 04:48:31;;;;;;;3.65;1.42;;;;;;;;;;5094308;28;20205;-72
2022/08/01 04:50:56;;;;;;;2.22;1.30;;;;;;;;;;5120908;28;20043;-73
2022/08/01 04:53:22;;;;;;;2.90;1.33;;;;;;;;;;5092549;28;20067;-72
2022/08/01 04:55:47;;;;;;;2.50;1.40;;;;;;;;;;5101192;28;20151;-72
2022/08/01 04:58:14;;;;;;;2.63;1.50;;;;;;;;;;5094233;28;20327;-72
2022/08/01 05:00:40;;;;;;;2.33;1.35;;;;;;;;;;5100908;28;20038;-72
2022/08/01 05:03:05;;;;;;;2.58;1.50;;;;;;;;;;5101302;28;20040;-72
2022/08/01 05:05:31;;;;;;;3.55;1.50;;;;;;;;;;5093941;28;20287;-72
2022/08/01 05:07:57;;;;;;;2.42;1.50;;;;;;;;;;5093925;28;20113;-72
2022/08/01 05:10:22;;;;;;;3.10;1.40;;;;;;;;;;5100573;28;20020;-73
2022/08/01 05:12:47;;;;;;;5.10;1.60;;;;;;;;;;5098987;28;20070;-72
2022/08/01 05:15:13;;;;;;;2.38;1.50;;;;;;;;;;5100697;28;20079;-72
2022/08/01 05:17:38;;;;;;;3.08;1.70;;;;;;;;;;5101164;28;20050;-72
2022/08/01 05:20:06;;;;;;;4.00;1.70;;;;;;;;;;5099934;28;20019;-72
2022/08/01 05:22:31;;;;;;;3.55;1.65;;;;;;;;;;5104853;28;20016;-72
2022/08/01 05:24:57;;;;;;;5.03;1.50;;;;;;;;;;5104413;28;20448;-72
2022/08/01 05:27:22;;;;;;;2.70;1.60;;;;;;;;;;5104464;28;20024;-72
2022/08/01 05:29:47;;;;;;;2.95;1.60;;;;;;;;;;5104447;28;20098;-72
2022/08/01 05:32:13;;;;;;;3.40;1.40;;;;;;;;;;5098393;28;20020;-72
2022/08/01 05:34:38;;;;;;;3.97;1.40;;;;;;;;;;5104021;28;20020;-72
2022/08/01 05:37:04;;;;;;;2.92;1.45;;;;;;;;;;5104435;28;20016;-72
2022/08/01 05:39:29;;;;;;;3.10;1.70;;;;;;;;;;5104095;28;20015;-73
2022/08/01 05:41:55;;;;;;;6.03;1.50;;;;;;;;;;5104052;28;20055;-72
2022/08/01 05:44:20;;;;;;;4.45;1.70;;;;;;;;;;5104804;28;20024;-72
2022/08/01 05:46:46;;;;;;;2.83;1.45;;;;;;;;;;5104413;28;20260;-73
2022/08/01 05:49:11;;;;;;;2.88;1.58;;;;;;;;;;5104024;28;20024;-75
2022/08/01 05:51:36;;;;;;;3.15;1.58;;;;;;;;;;5106155;28;20028;-72
2022/08/01 05:54:02;;;;;;;4.53;1.52;;;;;;;;;;5124065;28;20386;-72
2022/08/01 05:56:28;;;;;;;2.97;1.50;;;;;;;;;;5124510;28;20052;-74
2022/08/01 05:58:53;;;;;;;5.55;1.85;;;;;;;;;;5124074;28;20023;-72
2022/08/01 06:01:19;;;;;;;4.80;1.50;;;;;;;;;;5124543;28;20027;-73
2022/08/01 06:03:45;;;;;;;2.80;1.50;;;;;;;;;;5105962;28;20023;-72
2022/08/01 06:06:10;;;;;;;3.45;1.63;;;;;;;;;;5117257;28;20032;-73
2022/08/01 06:08:36;;;;;;;3.78;1.55;;;;;;;;;;5124026;28;20031;-73
2022/08/01 06:11:03;;;;;;;3.67;1.40;;;;;;;;;;5124164;28;20311;-73
2022/08/01 06:13:28;;;;;;;5.38;1.90;;;;;;;;;;5123866;28;20027;-73
2022/08/01 06:15:53;;;;;;;2.95;1.50;;;;;;;;;;5124110;28;20072;-73
2022/08/01 06:18:19;;;;;;;6.00;1.73;;;;;;;;;;5124016;28;20023;-73
2022/08/01 06:20:45;;;;;;;3.42;1.70;;;;;;;;;;5096003;28;20024;-73
2022/08/01 06:23:10;;;;;;;2.80;1.50;;;;;;;;;;5123995;28;20229;-73
2022/08/01 06:25:35;;;;;;;3.53;1.30;;;;;;;;;;5124295;28;20015;-72
2022/08/01 06:28:02;;;;;;;4.65;1.60;;;;;;;;;;5123760;28;20023;-72
2022/08/01 06:30:27;;;;;;;4.57;1.55;;;;;;;;;;5116729;28;20018;-72
2022/08/01 06:32:55;;;;;;;6.70;1.60;;;;;;;;;;5116089;28;20019;-72
2022/08/01 06:35:21;;;;;;;6.57;1.80;;;;;;;;;;5088088;28;20031;-73
2022/08/01 06:37:46;;;;;;;5.63;1.60;;;;;;;;;;5115888;28;20030;-74
2022/08/01 06:40:13;;;;;;;3.45;1.67;;;;;;;;;;5105422;28;20050;-73
2022/08/01 06:42:39;;;;;;;5.20;1.73;;;;;;;;;;5105388;28;20049;-73
2022/08/01 06:45:05;;;;;;;3.40;1.60;;;;;;;;;;5123462;28;20091;-72
2022/08/01 06:47:31;;;;;;;7.65;1.70;;;;;;;;;;5123212;28;20092;-73
2022/08/01 06:49:56;;;;;;;6.80;1.60;;;;;;;;;;5123296;28;20027;-73
2022/08/01 06:52:22;;;;;;;5.05;1.33;;;;;;;;;;5101846;28;20082;-72
2022/08/01 06:54:47;;;;;;;3.05;1.20;;;;;;;;;;5103069;28;20047;-72
2022/08/01 06:57:12;;;;;;;2.20;1.20;;;;;;;;;;5096334;28;20027;-72
2022/08/01 06:59:38;;;;;;;4.88;1.35;;;;;;;;;;5103033;28;20247;-73
2022/08/01 07:02:03;;;;;;;5.85;1.90;;;;;;;;;;5102708;28;20044;-72
2022/08/01 07:04:29;;;;;;;3.65;1.40;;;;;;;;;;5101021;28;20023;-72
2022/08/01 07:06:54;;;;;;;4.00;1.30;;;;;;;;;;5091257;28;20028;-73
2022/08/01 07:09:20;;;;;;;3.03;1.27;;;;;;;;;;5102406;28;20024;-72
2022/08/01 07:11:45;;;;;;;4.20;1.35;;;;;;;;;;5103069;28;20095;-73
2022/08/01 07:14:10;;;;;;;2.47;1.20;;;;;;;;;;5102837;28;20024;-72
2022/08/01 07:16:36;;;;;;;5.57;1.27;;;;;;;;;;5100816;28;20328;-72
2022/08/01 07:19:01;;;;;;;2.63;1.45;;;;;;;;;;5102091;28;20036;-73
2022/08/01 07:21:26;;;;;;;5.38;1.50;;;;;;;;;;5102583;28;20020;-72
2022/08/01 07:23:52;;;;;;;2.30;1.40;;;;;;;;;;5102302;28;20107;-73
2022/08/01 07:26:17;;;;;;;3.55;1.60;;;;;;;;;;5102373;28;20073;-74
2022/08/01 07:28:43;;;;;;;5.22;1.75;;;;;;;;;;5102446;28;20548;-73
2022/08/01 07:31:08;;;;;;;5.35;1.48;;;;;;;;;;5102172;28;20032;-73
2022/08/01 07:33:33;;;;;;;2.75;1.30;;;;;;;;;;5095591;28;20030;-73
2022/08/01 07:35:59;;;;;;;5.32;1.45;;;;;;;;;;5102359;28;20102;-74
2022/08/01 07:38:24;;;;;;;3.30;1.30;;;;;;;;;;5102086;28;20032;-72
2022/08/01 07:40:49;;;;;;;3.00;1.30;;;;;;;;;;5102020;28;20016;-74
2022/08/01 07:43:15;;;;;;;2.88;1.35;;;;;;;;;;5101897;28;20031;-73
2022/08/01 07:45:41;;;;;;;3.28;1.20;;;;;;;;;;5101983;28;20138;-72
2022/08/01 07:48:07;;;;;;;3.13;1.38;;;;;;;;;;5102004;28;20046;-73
2022/08/01 07:50:32;;;;;;;3.72;1.30;;;;;;;;;;5102083;28;20099;-72
2022/08/01 07:52:58;;;;;;;2.42;1.30;;;;;;;;;;5115235;28;20032;-73
2022/08/01 07:55:24;;;;;;;3.95;1.23;;;;;;;;;;5121939;28;20031;-72
2022/08/01 07:57:49;;;;;;;2.03;1.20;;;;;;;;;;5116011;28;20019;-73
2022/08/01 08:00:15;;;;;;;2.40;1.20;;;;;;;;;;5122099;28;20015;-73
2022/08/01 08:02:40;;;;;;;4.68;1.35;;;;;;;;;;5122300;28;20410;-72
2022/08/01 08:05:07;;;;;;;3.40;1.23;;;;;;;;;;5115644;28;20083;-73
2022/08/01 08:07:35;;;;;;;4.57;1.30;;;;;;;;;;5115787;28;20020;-72
2022/08/01 08:10:00;;;;;;;5.57;1.20;;;;;;;;;;5115025;28;20044;-73
2022/08/01 08:12:25;;;;;;;3.67;1.30;;;;;;;;;;5122333;28;20019;-72
2022/08/01 08:14:51;;;;;;;5.07;1.30;;;;;;;;;;5121756;28;20068;-73
2022/08/01 08:17:16;;;;;;;4.57;1.20;;;;;;;;;;5121703;28;20055;-73
2022/08/01 08:19:42;;;;;;;2.90;1.30;;;;;;;;;;5121751;28;20023;-73
2022/08/01 08:22:08;;;;;;;4.88;1.38;;;;;;;;;;5122029;28;20043;-74
2022/08/01 08:24:34;;;;;;;10.98;1.80;;;;;;;;;;5121404;28;20087;-72
2022/08/01 08:27:01;;;;;;;11.18;1.50;;;;;;;;;;5121414;28;20320;-72
2022/08/01 08:29:29;;;;;;;7.00;1.80;;;;;;;;;;5121521;28;20032;-73
2022/08/01 08:31:55;;;;;;;3.78;1.27;;;;;;;;;;5117802;28;20028;-72
2022/08/01 08:34:20;;;;;;;2.85;1.25;;;;;;;;;;5118705;28;20023;-72
2022/08/01 08:36:46;;;;;;;2.22;1.20;;;;;;;;;;5121957;28;20031;-72
2022/08/01 08:39:11;;;;;;;3.15;1.10;;;;;;;;;;5121528;28;20343;-73
2022/08/01 08:41:37;;;;;;;2.60;1.30;;;;;;;;;;5121098;28;20261;-73
2022/08/01 08:44:04;;;;;;;2.88;1.40;;;;;;;;;;5121311;28;20022;-73
2022/08/01 08:46:32;;;;;;;2.58;1.20;;;;;;;;;;5121733;28;20023;-73
2022/08/01 08:48:59;;;;;;;3.42;1.52;;;;;;;;;;5121478;28;20244;-73
2022/08/01 08:51:27;;;;;;;3.92;1.40;;;;;;;;;;5121354;28;20020;-73
2022/08/01 08:53:56;;;;;;;3.10;1.38;;;;;;;;;;5121679;28;20054;-72
2022/08/01 08:56:24;;;;;;;9.77;1.90;;;;;;;;;;5120145;28;20078;-72
2022/08/01 08:58:50;;;;;;;3.20;1.42;;;;;;;;;;5114740;28;20324;-72
2022/08/01 09:01:17;;;;;;;2.83;1.38;;;;;;;;;;5121445;28;20311;-72
2022/08/01 09:03:43;;;;;;;2.15;1.50;;;;;;;;;;5120884;28;20121;-73
2022/08/01 09:06:09;;;;;;;2.20;1.40;;;;;;;;;;5114711;28;20027;-72
2022/08/01 09:08:35;;;;;;;2.17;1.35;;;;;;;;;;5114526;28;20027;-72
2022/08/01 09:11:00;;;;;;;2.95;1.58;;;;;;;;;;5114036;28;20284;-72
2022/08/01 09:13:26;;;;;;;2.85;1.60;;;;;;;;;;5121060;28;20181;-72
2022/08/01 09:15:55;;;;;;;3.20;1.63;;;;;;;;;;5121109;28;20319;-72
2022/08/01 09:18:34;;;;;;;3.75;1.70;;;;;;;;;;5121015;28;20012;-72
2022/08/01 09:21:05;;;;;;;2.42;1.60;;;;;;;;;;5121096;28;20030;-72
2022/08/01 09:23:38;;;;;;;3.60;1.70;;;;;;;;;;5120743;28;20029;-72
2022/08/01 09:26:04;;;;;;;3.60;1.80;;;;;;;;;;5093958;28;20039;-72
2022/08/01 09:28:30;;;;;;;3.75;1.92;;;;;;;;;;5121005;28;20382;-72
2022/08/01 09:30:56;;;;;;;2.17;1.50;;;;;;;;;;5121038;28;20083;-73
2022/08/01 09:33:22;;;;;;;4.00;1.75;;;;;;;;;;5120507;28;20023;-72
2022/08/01 09:35:55;;;;;;;5.95;2.17;;;;;;;;;;5120707;28;20047;-72
2022/08/01 09:38:23;;;;;;;3.10;1.63;;;;;;;;;;5120765;28;20036;-72
2022/08/01 09:40:55;;;;;;;3.58;1.75;;;;;;;;;;5120262;28;20035;-73
2022/08/01 09:43:24;;;;;;;4.72;1.85;;;;;;;;;;5120475;28;20023;-72
2022/08/01 09:45:50;;;;;;;4.15;1.80;;;;;;;;;;5120920;28;20023;-73
2022/08/01 09:48:16;;;;;;;4.47;2.20;;;;;;;;;;5120918;28;20031;-74
2022/08/01 09:50:44;;;;;;;3.05;1.80;;;;;;;;;;5120695;28;20035;-72
2022/08/01 09:53:11;;;;;;;3.67;1.90;;;;;;;;;;5120381;28;20049;-73
2022/08/01 09:55:40;;;;;;;5.40;1.77;;;;;;;;;;5119945;28;20047;-72
2022/08/01 09:58:06;;;;;;;6.65;2.00;;;;;;;;;;5114349;28;20339;-73
2022/08/01 10:00:34;;;;;;;5.03;2.00;;;;;;;;;;5120851;28;20054;-72
2022/08/01 10:03:00;;;;;;;3.78;2.10;;;;;;;;;;5120388;28;20038;-72
2022/08/01 10:05:35;;;;;;;4.35;2.00;;;;;;;;;;5113842;28;20038;-72
2022/08/01 10:08:03;;;;;;;3.55;2.03;;;;;;;;;;5123594;28;20138;-72
2022/08/01 10:10:30;;;;;;;3.00;1.92;;;;;;;;;;5124121;28;20024;-72
2022/08/01 10:12:57;;;;;;;4.85;1.90;;;;;;;;;;5123964;28;20351;-74
2022/08/01 10:15:25;;;;;;;4.55;2.08;;;;;;;;;;5124024;28;20094;-72
2022/08/01 10:17:58;;;;;;;3.55;1.90;;;;;;;;;;5094769;28;20279;-72
2022/08/01 10:20:30;;;;;;;6.78;2.30;;;;;;;;;;5124357;28;20043;-73
2022/08/01 10:22:58;;;;;;;3.75;2.53;;;;;;;;;;5123915;28;20015;-72
2022/08/01 10:25:28;;;;;;;3.72;2.13;;;;;;;;;;5115032;28;20019;-73
2022/08/01 10:27:57;;;;;;;9.80;3.75;;;;;;;;;;5124555;28;20032;-72
2022/08/01 10:30:23;;;;;;;4.05;2.10;;;;;;;;;;5123559;28;20071;-73
2022/08/01 10:32:52;;;;;;;4.10;2.20;;;;;;;;;;5124174;28;20027;-73
2022/08/01 10:35:19;;;;;;;2.90;2.00;;;;;;;;;;5117056;28;20053;-72
2022/08/01 10:37:45;;;;;;;3.83;2.00;;;;;;;;;;5123823;28;20020;-73
2022/08/01 10:40:14;;;;;;;4.57;2.20;;;;;;;;;;5122957;28;20031;-72
2022/08/01 10:42:42;;;;;;;3.55;2.00;;;;;;;;;;5123857;28;20028;-72
2022/08/01 10:45:10;;;;;;;3.45;2.00;;;;;;;;;;5120878;28;20024;-72
2022/08/01 10:47:51;;;;;;;3.75;1.67;;;;;;;;;;5123313;28;20034;-72
2022/08/01 10:50:24;;;;;;;3.63;1.67;;;;;;;;;;5123189;28;20030;-72
2022/08/01 10:53:16;;;;;;;4.18;1.85;;;;;;;;;;5123424;28;20124;-72
2022/08/01 10:55:48;;;;;;;3.97;2.00;;;;;;;;;;5120853;28;20302;-72
2022/08/01 10:58:19;;;;;;;5.93;2.92;;;;;;;;;;5116955;28;20091;-72
2022/08/01 11:00:44;;;;;;;5.25;2.47;;;;;;;;;;5123023;28;20043;-74
2022/08/01 11:03:10;;;;;;;6.05;2.30;;;;;;;;;;5123470;28;20032;-72
2022/08/01 11:05:35;;;;;;;4.43;2.58;;;;;;;;;;5116484;28;20285;-73
2022/08/01 11:08:03;;;;;;;7.93;4.88;;;;;;;;;;5094686;28;20231;-72
2022/08/01 11:11:01;;;;;;;3.33;1.95;;;;;;;;;;5119587;28;20057;-72
2022/08/01 11:13:57;;;;;;;3.30;1.98;;;;;;;;;;5110174;28;20106;-72
2022/08/01 11:16:35;;;;;;;2.97;1.88;;;;;;;;;;5122672;28;20028;-73
2022/08/01 11:19:00;;;;;;;3.17;2.10;;;;;;;;;;5122152;28;20064;-72
2022/08/01 11:21:54;;;;;;;4.68;2.10;;;;;;;;;;5123250;28;20348;-72
2022/08/01 11:24:48;;;;;;;2.85;1.80;;;;;;;;;;5114410;28;20023;-73
2022/08/01 11:27:19;;;;;;;5.00;1.95;;;;;;;;;;5115625;28;20333;-72
2022/08/01 11:30:10;;;;;;;2.95;1.83;;;;;;;;;;5122388;28;20034;-72
2022/08/01 11:32:55;;;;;;;4.28;1.65;;;;;;;;;;5122500;28;20023;-72
2022/08/01 11:35:23;;;;;;;2.90;1.70;;;;;;;;;;5122216;28;20208;-72
2022/08/01 11:37:50;;;;;;;4.95;2.22;;;;;;;;;;5122176;28;20308;-72
2022/08/01 11:40:29;;;;;;;4.45;1.70;;;;;;;;;;5122212;28;20027;-72
2022/08/01 11:43:16;;;;;;;3.30;1.60;;;;;;;;;;5122355;28;20032;-72
2022/08/01 11:45:54;;;;;;;4.13;1.85;;;;;;;;;;5121496;28;20356;-73
2022/08/01 11:48:23;;;;;;;7.85;5.40;;;;;;;;;;5122509;28;20027;-72
2022/08/01 11:50:56;;;;;;;7.35;4.75;;;;;;;;;;5104170;28;20066;-72
2022/08/01 11:53:22;;;;;;;17.02;10.73;;;;;;;;;;5121573;28;20098;-72
2022/08/01 11:55:52;;;;;;;9.77;6.30;;;;;;;;;;5121769;28;20027;-72
2022/08/01 11:58:25;;;;;;;7.32;4.22;;;;;;;;;;5122309;28;20032;-72
2022/08/01 12:00:56;;;;;;;3.90;1.90;;;;;;;;;;5115098;28;20086;-72
2022/08/01 12:03:31;;;;;;;3.22;1.98;;;;;;;;;;5121871;28;20023;-72
2022/08/01 12:05:58;;;;;;;5.60;2.08;;;;;;;;;;5115191;28;20039;-72
2022/08/01 12:08:36;;;;;;;3.80;2.00;;;;;;;;;;5114953;28;20086;-72
2022/08/01 12:11:03;;;;;;;3.20;2.00;;;;;;;;;;5121767;28;20043;-73
2022/08/01 12:13:41;;;;;;;3.50;1.83;;;;;;;;;;5121894;28;20086;-73
2022/08/01 12:16:08;;;;;;;4.53;2.20;;;;;;;;;;5121520;28;20193;-72
2022/08/01 12:18:39;;;;;;;3.80;2.00;;;;;;;;;;5120619;28;20015;-72
2022/08/01 12:21:04;;;;;;;5.57;2.30;;;;;;;;;;5119746;28;20090;-72
2022/08/01 12:23:30;;;;;;;2.90;2.00;;;;;;;;;;5117253;28;20028;-78
2022/08/01 12:25:55;;;;;;;3.00;2.20;;;;;;;;;;5115771;28;20026;-78
2022/08/01 12:28:22;;;;;;;3.60;2.05;;;;;;;;;;5121542;28;20020;-79
2022/08/01 12:30:48;;;;;;;3.30;2.00;;;;;;;;;;5120188;28;20015;-77
2022/08/01 12:33:18;;;;;;;5.18;2.10;;;;;;;;;;5121669;28;20030;-77
2022/08/01 12:35:43;;;;;;;2.97;2.08;;;;;;;;;;5121506;28;20023;-78
2022/08/01 12:38:18;;;;;;;4.32;2.05;;;;;;;;;;5119486;28;20246;-78
2022/08/01 12:40:44;;;;;;;;;;;;;;;;;;5120639;28;20042;-77
2022/08/01 12:43:16;;;;;;;5.88;1.80;;;;;;;;;;5119750;28;19979;-77
2022/08/01 12:45:44;;;;;;;2.45;1.73;;;;;;;;;;5114715;28;20016;-78
2022/08/01 12:48:14;;;;;;;4.35;2.28;;;;;;;;;;5112371;28;20359;-78
2022/08/01 12:50:43;;;;;;;3.05;1.88;;;;;;;;;;5121405;28;20231;-79
2022/08/01 12:53:09;;;;;;;4.35;2.05;;;;;;;;;;5120974;28;20037;-78
2022/08/01 12:55:47;;;;;;;4.07;2.17;;;;;;;;;;5121084;28;20328;-78
2022/08/01 12:58:14;;;;;;;3.28;1.65;;;;;;;;;;5121370;28;20077;-77
2022/08/01 13:00:42;;;;;;;4.68;2.03;;;;;;;;;;5120950;28;20094;-79
2022/08/01 13:03:13;;;;;;;8.02;1.90;;;;;;;;;;5119022;28;20020;-80
2022/08/01 13:05:50;;;;;;;6.53;1.80;;;;;;;;;;5113429;28;20024;-79
2022/08/01 13:08:18;;;;;;;4.47;1.80;;;;;;;;;;5102824;28;20440;-82
2022/08/01 13:10:44;;;;;;;2.50;1.73;;;;;;;;;;5121084;28;20034;-83
2022/08/01 13:13:10;;;;;;;4.80;1.73;;;;;;;;;;5119221;28;20039;-90
2022/08/01 13:15:43;;;;;;;2.63;1.80;;;;;;;;;;5115780;28;20050;-90
2022/08/01 13:18:28;;;;;;;4.45;1.80;;;;;;;;;;5113379;28;20027;-91
2022/08/01 13:21:10;;;;;;;;;;;;;;;;;;5110063;28;20026;-91
2022/08/01 13:23:36;;;;;;;4.38;1.88;;;;;;;;;;5119265;28;19904;-90
2022/08/01 13:26:01;;;;;;;5.63;2.08;;;;;;;;;;5120004;28;20049;-89
2022/08/01 13:28:27;;;;;;;3.38;1.90;;;;;;;;;;5116500;28;20068;-89
2022/08/01 13:31:03;;;;;;;4.05;1.85;;;;;;;;;;5120588;28;20039;-88
2022/08/01 13:33:44;;;;;;;7.10;2.00;;;;;;;;;;5116498;28;20031;-90
2022/08/01 13:36:10;;;;;;;4.70;1.90;;;;;;;;;;5119447;28;20020;-89
2022/08/01 13:41:20;;;;;;;2.80;1.80;;;;;;;;;;5120998;28;20245;-86
2022/08/01 13:43:45;;;;;;;3.35;1.85;;;;;;;;;;5118326;28;20027;-86
2022/08/01 13:46:10;;;;;;;2.75;1.60;;;;;;;;;;5125329;28;20011;-86
2022/08/01 13:48:36;;;;;;;2.72;1.70;;;;;;;;;;5117523;28;20250;-84
2022/08/01 13:51:02;;;;;;;2.55;1.80;;;;;;;;;;5124931;28;20113;-87
2022/08/01 13:53:28;;;;;;;3.20;1.63;;;;;;;;;;5121295;28;20043;-81
2022/08/01 13:55:54;;;;;;;2.85;1.67;;;;;;;;;;5125258;28;20346;-85
2022/08/01 13:58:19;;;;;;;5.03;1.90;;;;;;;;;;5123722;28;20027;-85
2022/08/01 14:00:45;;;;;;;3.90;1.80;;;;;;;;;;5123500;28;20016;-83
2022/08/01 14:03:11;;;;;;;3.47;1.80;;;;;;;;;;5123210;28;20027;-84
2022/08/01 14:05:37;;;;;;;3.00;2.08;;;;;;;;;;5113428;28;20035;-84
2022/08/01 14:08:02;;;;;;;4.38;1.92;;;;;;;;;;5103196;28;20080;-88
2022/08/01 14:10:28;;;;;;;3.65;1.95;;;;;;;;;;5123616;28;20015;-83
2022/08/01 14:12:56;;;;;;;3.22;1.90;;;;;;;;;;5117075;28;20023;-84
2022/08/01 14:15:21;;;;;;;3.42;1.80;;;;;;;;;;5118127;28;20242;-82
2022/08/01 14:17:47;;;;;;;3.05;1.80;;;;;;;;;;5125236;28;20303;-84
2022/08/01 14:20:12;;;;;;;5.57;1.90;;;;;;;;;;5124113;28;20091;-84
2022/08/01 14:22:39;;;;;;;2.78;1.80;;;;;;;;;;5118102;28;20024;-82
2022/08/01 14:25:05;;;;;;;3.13;1.70;;;;;;;;;;5117425;28;20326;-86
2022/08/01 14:27:30;;;;;;;4.03;1.80;;;;;;;;;;5124366;28;20023;-84
2022/08/01 14:29:56;;;;;;;3.13;1.80;;;;;;;;;;5120104;28;20027;-85
2022/08/01 14:32:21;;;;;;;4.35;1.83;;;;;;;;;;5119408;28;20015;-86
2022/08/01 14:34:47;;;;;;;4.00;1.77;;;;;;;;;;5123901;28;20020;-83
2022/08/01 14:37:12;;;;;;;4.43;1.75;;;;;;;;;;5118605;28;20030;-86
2022/08/01 14:39:37;;;;;;;2.95;1.80;;;;;;;;;;5122974;28;20015;-85
2022/08/01 14:42:03;;;;;;;2.17;1.63;;;;;;;;;;5089722;28;20060;-85
2022/08/01 14:44:29;;;;;;;2.85;1.80;;;;;;;;;;5115954;28;20020;-87
2022/08/01 14:46:54;;;;;;;3.08;1.90;;;;;;;;;;5124196;28;20024;-80
2022/08/01 14:49:19;;;;;;;5.20;1.90;;;;;;;;;;5120655;28;20246;-86
2022/08/01 14:51:45;;;;;;;6.20;1.90;;;;;;;;;;5119757;28;20032;-86
2022/08/01 14:54:10;;;;;;;3.25;1.65;;;;;;;;;;5122844;28;20043;-85